Main page
METAR-TAF:

METAR-TAF

Airports :

Harrell Field

Camden, Arkansas, United States

latitude: 33-37N, longitude: 092-46W, elevation: 131 ft

Current weather observation

The report was made 15 minutes ago, at 13:15 UTC
Calm wind
Temperature 79°F
Humidity 100%
Pressure 29.99 in. Hg
Visibility: 8 miles
Clear sky

METAR: KCDH 171315Z AUTO 00000KT 8SM CLR 26/26 A2999 RMK AO2

Time: 08:30 (13:30 UTC)


TAF: missing

Weather observations and forecasts of more than 4000 airports (METAR and TAF reports).

The available stations are represented by yellow and red dots on the map.

Hover mouse over dot to see the name of the station.

Then click to see weather observations and forecasts.

To change the map : click on the green buttons with a black cross to zoom in, on the green button with a dash to zoom out, or on the green arrows for adjacent maps.


METAR-TAF: